createdAt,value
2023-02-08T00:00:48.303Z,103394.34
2023-02-08T00:03:51.500Z,103396.56
2023-02-08T00:06:54.016Z,103367.09
2023-02-08T00:09:58.769Z,103399.31
2023-02-08T00:13:01.255Z,103388.56
2023-02-08T00:16:04.433Z,103392.88
2023-02-08T00:19:06.620Z,103406.63
2023-02-08T00:22:11.675Z,103413.88
2023-02-08T00:25:13.749Z,103420.06
2023-02-08T00:28:17.173Z,103401.63
2023-02-08T00:31:19.360Z,103399.06
2023-02-08T00:34:21.559Z,103422.34
2023-02-08T00:37:24.346Z,103416.94
2023-02-08T00:40:27.288Z,103420.56
2023-02-08T00:43:29.440Z,103416.22
2023-02-08T00:46:33.254Z,103414.53
2023-02-08T00:49:35.434Z,103423.41
2023-02-08T00:52:38.758Z,103410.97
2023-02-08T00:55:41.412Z,103431.81
2023-02-08T00:58:44.978Z,103439.72
2023-02-08T01:01:49.148Z,103426.94
2023-02-08T01:04:51.354Z,103443.31
2023-02-08T01:07:53.638Z,103457.78
2023-02-08T01:11:04.676Z,103466.13
2023-02-08T01:14:06.922Z,103469.09
2023-02-08T01:17:09.099Z,103481.06
2023-02-08T01:20:11.985Z,103458.06
2023-02-08T01:23:14.131Z,103461.25
2023-02-08T01:26:18.205Z,103470.38
2023-02-08T01:29:20.730Z,103470.94
2023-02-08T01:32:22.847Z,103472.88
2023-02-08T01:35:24.998Z,103483.84
2023-02-08T01:38:27.064Z,103487.03
2023-02-08T01:41:32.686Z,103498.16
2023-02-08T01:45:12.110Z,103498.75
2023-02-08T01:48:23.361Z,103488.88
2023-02-08T01:51:31.573Z,103498.78
2023-02-08T01:54:39.160Z,103508.88
2023-02-08T01:57:43.011Z,103503.72
2023-02-08T02:00:45.991Z,103497.50
2023-02-08T02:03:48.275Z,103514.66
2023-02-08T02:06:58.910Z,103526.88
2023-02-08T02:10:11.032Z,103519.56
2023-02-08T02:13:24.964Z,103513.75
2023-02-08T02:16:27.116Z,103541.38
2023-02-08T02:19:31.999Z,103542.03
2023-02-08T02:23:01.945Z,103536.16
2023-02-08T02:26:40.693Z,103552.38
2023-02-08T02:30:10.587Z,103547.25
2023-02-08T02:33:16.501Z,103551.75
2023-02-08T02:36:32.750Z,103555.09
2023-02-08T02:39:58.701Z,103559.59
2023-02-08T02:43:21.922Z,103566.44
2023-02-08T02:46:29.121Z,103577.06
2023-02-08T02:49:38.594Z,103574.22
2023-02-08T02:52:48.798Z,103572.22
2023-02-08T02:55:58.854Z,103578.34
2023-02-08T02:59:05.682Z,103575.28
2023-02-08T03:02:09.066Z,103588.06
2023-02-08T03:05:13.672Z,103596.47
2023-02-08T03:08:40.457Z,103591.16
2023-02-08T03:11:53.451Z,103597.00
2023-02-08T03:15:16.812Z,103596.06
2023-02-08T03:18:21.571Z,103609.44
2023-02-08T03:21:35.493Z,103607.31
2023-02-08T03:24:37.532Z,103615.78
2023-02-08T03:27:49.601Z,103619.97
2023-02-08T03:31:13.324Z,103607.91
2023-02-08T03:34:19.298Z,103614.78
2023-02-08T03:37:30.255Z,103644.31
2023-02-08T03:40:56.333Z,103636.44
2023-02-08T03:44:06.386Z,103645.91
2023-02-08T03:47:19.914Z,103660.09
2023-02-08T03:50:24.231Z,103655.91
2023-02-08T03:53:27.763Z,103645.59
2023-02-08T03:56:41.852Z,103653.06
2023-02-08T03:59:50.312Z,103648.59
2023-02-08T04:02:57.862Z,103649.50
2023-02-08T04:06:00.181Z,103654.72
2023-02-08T04:09:02.266Z,103669.50
2023-02-08T04:12:05.731Z,103670.97
2023-02-08T04:15:08.767Z,103654.19
2023-02-08T04:18:11.002Z,103684.16
2023-02-08T04:21:13.525Z,103692.19
2023-02-08T04:24:15.556Z,103674.72
2023-02-08T04:27:17.841Z,103696.72
2023-02-08T04:30:20.010Z,103696.50
2023-02-08T04:33:22.159Z,103697.53
2023-02-08T04:36:24.364Z,103704.56
2023-02-08T04:39:26.455Z,103719.22
2023-02-08T04:42:28.553Z,103709.91
2023-02-08T04:45:32.182Z,103720.44
2023-02-08T04:48:34.750Z,103733.16
2023-02-08T04:51:36.975Z,103744.38
2023-02-08T04:54:40.858Z,103733.81
2023-02-08T04:57:45.071Z,103731.16
2023-02-08T05:00:47.104Z,103739.25
2023-02-08T05:03:49.290Z,103738.19
2023-02-08T05:06:51.292Z,103751.44
2023-02-08T05:09:53.473Z,103756.91
2023-02-08T05:12:55.447Z,103743.09
2023-02-08T05:15:57.991Z,103763.41
2023-02-08T05:19:01.106Z,103784.25
2023-02-08T05:22:03.216Z,103783.44
2023-02-08T05:25:05.754Z,103788.41
2023-02-08T05:28:07.835Z,103797.06
2023-02-08T05:31:24.872Z,103799.63
2023-02-08T05:34:27.093Z,103807.50
2023-02-08T05:37:29.106Z,103830.66
2023-02-08T05:43:33.645Z,103852.38
2023-02-08T05:46:38.074Z,103854.00
2023-02-08T05:49:40.680Z,103867.03
2023-02-08T05:52:42.781Z,103875.00
2023-02-08T05:55:46.619Z,103878.53
2023-02-08T05:58:48.702Z,103878.84
2023-02-08T06:01:51.238Z,103876.72
2023-02-08T06:04:53.338Z,103865.19
2023-02-08T06:07:55.422Z,103875.16
2023-02-08T06:10:57.465Z,103881.34
2023-02-08T06:13:59.949Z,103885.38
2023-02-08T06:17:01.941Z,103895.03
2023-02-08T06:20:05.323Z,103900.34
2023-02-08T06:23:07.513Z,103908.78
2023-02-08T06:26:09.609Z,103921.44
2023-02-08T06:29:11.710Z,103934.22
2023-02-08T06:32:13.929Z,103932.94
2023-02-08T06:35:16.175Z,103931.75
2023-02-08T06:38:18.348Z,103923.06
2023-02-08T06:41:20.959Z,103934.16
2023-02-08T06:44:23.253Z,103941.72
2023-02-08T06:47:30.965Z,103923.59
2023-02-08T06:50:33.037Z,103953.28
2023-02-08T06:53:35.135Z,103949.63
2023-02-08T06:56:37.522Z,103964.44
2023-02-08T06:59:40.388Z,103970.63
2023-02-08T07:02:42.732Z,103963.84
2023-02-08T07:05:58.686Z,103984.81
2023-02-08T07:09:05.949Z,103979.50
2023-02-08T07:12:08.356Z,103971.81
2023-02-08T07:15:13.398Z,103973.59
2023-02-08T07:18:15.634Z,103982.75
2023-02-08T07:21:17.819Z,103975.56
2023-02-08T07:24:20.744Z,103992.91
2023-02-08T07:27:25.028Z,103989.72
2023-02-08T07:30:28.230Z,104001.88
2023-02-08T07:33:30.893Z,103991.63
2023-02-08T07:36:38.120Z,104002.41
2023-02-08T07:39:40.400Z,104012.63
2023-02-08T07:42:42.478Z,104001.88
2023-02-08T07:45:57.098Z,104005.09
2023-02-08T07:48:59.257Z,104017.06
2023-02-08T07:52:02.030Z,104024.94
2023-02-08T07:55:04.240Z,104019.25
2023-02-08T07:58:10.074Z,104031.53
2023-02-08T08:01:22.358Z,104018.59
2023-02-08T08:04:26.775Z,104028.28
2023-02-08T08:07:28.794Z,104017.78
2023-02-08T08:10:32.538Z,104009.72
2023-02-08T08:13:36.846Z,104007.03
2023-02-08T08:16:38.996Z,104011.59
2023-02-08T08:19:41.602Z,104017.78
2023-02-08T08:22:43.998Z,104021.66
2023-02-08T08:25:46.228Z,104012.75
2023-02-08T08:28:49.630Z,104018.03
2023-02-08T08:31:58.826Z,104034.44
2023-02-08T08:35:01.133Z,104026.84
2023-02-08T08:38:09.302Z,104014.22
2023-02-08T08:41:15.057Z,104031.88
2023-02-08T08:44:17.775Z,104031.47
2023-02-08T08:47:20.823Z,104035.50
2023-02-08T08:50:23.377Z,104034.56
2023-02-08T08:53:27.279Z,104033.94
2023-02-08T08:56:30.241Z,104050.59
2023-02-08T08:59:33.220Z,104040.38
2023-02-08T09:02:35.598Z,104042.91
2023-02-08T09:05:37.688Z,104055.75
2023-02-08T09:08:41.311Z,104072.75
2023-02-08T09:11:43.497Z,104078.19
2023-02-08T09:14:45.597Z,104057.81
2023-02-08T09:17:47.743Z,104070.88
2023-02-08T09:20:50.266Z,104064.88
2023-02-08T09:23:52.424Z,104053.69
2023-02-08T09:26:55.619Z,104049.75
2023-02-08T09:30:00.444Z,104074.03
2023-02-08T09:33:06.273Z,104063.69
2023-02-08T09:36:09.726Z,104066.66
2023-02-08T09:39:19.268Z,104067.97
2023-02-08T09:42:30.428Z,104064.13
2023-02-08T09:46:08.296Z,104060.66
2023-02-08T09:49:18.971Z,104056.38
2023-02-08T09:52:27.801Z,104038.69
2023-02-08T09:55:35.229Z,104050.97
2023-02-08T09:58:44.955Z,104043.25
2023-02-08T10:01:49.927Z,104045.31
2023-02-08T10:05:03.826Z,104045.19
2023-02-08T10:08:09.904Z,104042.78
2023-02-08T10:11:40.115Z,104033.34
2023-02-08T10:15:00.983Z,104035.56
2023-02-08T10:18:41.226Z,104028.28
2023-02-08T10:21:56.130Z,104019.03
2023-02-08T10:25:25.597Z,104027.59
2023-02-08T10:28:30.633Z,104031.38
2023-02-08T10:32:15.162Z,104024.81
2023-02-08T10:35:39.565Z,104012.41
2023-02-08T10:38:46.810Z,104027.81
2023-02-08T10:41:50.553Z,104009.75
2023-02-08T10:45:01.666Z,104023.47
2023-02-08T10:48:10.717Z,104031.13
2023-02-08T10:51:16.944Z,104022.31
2023-02-08T10:54:19.173Z,104019.25
2023-02-08T10:57:26.094Z,104024.59
2023-02-08T11:00:32.517Z,104003.19
2023-02-08T11:03:35.868Z,104015.59
2023-02-08T11:06:41.864Z,104015.56
2023-02-08T11:09:43.996Z,104014.25
2023-02-08T11:12:56.734Z,104010.97
2023-02-08T11:16:01.489Z,104016.69
2023-02-08T11:19:08.478Z,104008.63
2023-02-08T11:22:18.035Z,104003.78
2023-02-08T11:25:39.626Z,104006.56
2023-02-08T11:28:42.323Z,104011.06
2023-02-08T11:32:02.604Z,104005.38
2023-02-08T11:35:24.538Z,104011.34
2023-02-08T11:38:28.692Z,104007.38
2023-02-08T11:41:34.050Z,104008.66
2023-02-08T11:44:44.234Z,103989.84
2023-02-08T11:47:48.532Z,103992.81
2023-02-08T11:50:58.023Z,103984.66
2023-02-08T11:54:04.636Z,103999.00
2023-02-08T12:06:17.504Z,103999.41
2023-02-08T12:10:29.904Z,103993.13
2023-02-08T12:14:32.985Z,103993.66
2023-02-08T12:18:22.741Z,104002.19
2023-02-08T12:21:29.766Z,103998.97
2023-02-08T12:24:56.943Z,104003.22
2023-02-08T12:28:31.044Z,104009.22
2023-02-08T12:32:06.388Z,104006.47
2023-02-08T12:35:48.298Z,103995.97
2023-02-08T12:39:51.821Z,104004.94
2023-02-08T12:43:13.965Z,104004.53
2023-02-08T12:46:49.887Z,104017.13
2023-02-08T12:50:19.873Z,104020.03
2023-02-08T12:53:31.141Z,104012.47
2023-02-08T12:56:39.111Z,104020.88
2023-02-08T12:59:55.781Z,104016.97
2023-02-08T13:03:10.269Z,104019.31
2023-02-08T13:06:20.771Z,104011.66
2023-02-08T13:09:49.040Z,104007.25
2023-02-08T13:12:53.703Z,104012.50
2023-02-08T13:16:36.713Z,104012.41
2023-02-08T13:19:58.997Z,104020.16
2023-02-08T13:23:07.960Z,104024.69
2023-02-08T13:26:23.692Z,104019.91
2023-02-08T13:29:28.339Z,104025.53
2023-02-08T13:32:44.481Z,104026.84
2023-02-08T13:35:53.505Z,104019.91
2023-02-08T13:38:58.403Z,104015.00
2023-02-08T13:42:01.961Z,104016.09
2023-02-08T13:45:07.788Z,104022.41
2023-02-08T13:48:18.677Z,104015.41
2023-02-08T13:51:34.288Z,104027.25
2023-02-08T13:54:36.312Z,104022.31
2023-02-08T13:57:53.501Z,104014.97
2023-02-08T14:00:56.622Z,104017.28
2023-02-08T14:04:07.764Z,104007.97
2023-02-08T14:07:36.393Z,104004.13
2023-02-08T14:10:46.805Z,103994.19
2023-02-08T14:13:59.418Z,104007.38
2023-02-08T14:17:04.266Z,104004.91
2023-02-08T14:20:07.738Z,104000.56
2023-02-08T14:23:26.424Z,104003.63
2023-02-08T14:26:29.202Z,103992.94
2023-02-08T14:29:33.107Z,103988.09
2023-02-08T14:32:39.039Z,103990.16
2023-02-08T14:35:50.781Z,103978.47
2023-02-08T14:38:55.090Z,103985.19
2023-02-08T14:42:01.790Z,103978.00
2023-02-08T14:45:05.202Z,103976.13
2023-02-08T14:48:19.473Z,103973.91
2023-02-08T14:51:32.295Z,103979.25
2023-02-08T14:54:46.660Z,103974.28
2023-02-08T14:57:49.141Z,103981.22
2023-02-08T15:00:54.282Z,103968.25
2023-02-08T15:04:02.313Z,103976.50
2023-02-08T15:07:15.647Z,103984.41
2023-02-08T15:10:20.569Z,103989.34
2023-02-08T15:13:27.697Z,103987.38
2023-02-08T15:16:41.805Z,103971.38
2023-02-08T15:19:46.600Z,103984.69
2023-02-08T15:22:49.163Z,103985.88
2023-02-08T15:25:56.914Z,103991.59
2023-02-08T15:29:03.361Z,103984.78
2023-02-08T15:32:14.387Z,103987.34
2023-02-08T15:35:24.381Z,103988.72
2023-02-08T15:38:27.293Z,103978.50
2023-02-08T15:41:34.011Z,103996.47
2023-02-08T15:44:36.193Z,103999.69
2023-02-08T15:47:39.994Z,103996.91
2023-02-08T15:50:42.387Z,103999.78
2023-02-08T15:53:48.538Z,103990.72
2023-02-08T15:57:05.365Z,103992.91
2023-02-08T16:00:39.798Z,103987.88
2023-02-08T16:03:48.377Z,103994.06
2023-02-08T16:06:55.231Z,104002.22
2023-02-08T16:09:58.002Z,103987.09
2023-02-08T16:13:06.005Z,103997.66
2023-02-08T16:16:18.729Z,104002.59
2023-02-08T16:19:29.268Z,103988.97
2023-02-08T16:22:33.646Z,104005.44
2023-02-08T16:25:45.465Z,103991.72
2023-02-08T16:29:00.927Z,104007.41
2023-02-08T16:32:13.347Z,104010.88
2023-02-08T16:35:25.365Z,104000.81
2023-02-08T16:38:31.548Z,103996.38
2023-02-08T16:41:57.238Z,104010.22
2023-02-08T16:45:17.308Z,104021.63
2023-02-08T16:48:35.019Z,104010.69
2023-02-08T16:51:39.629Z,104002.53
2023-02-08T16:54:42.231Z,104003.06
2023-02-08T16:58:00.167Z,104022.31
2023-02-08T17:01:03.831Z,104016.56
2023-02-08T17:04:08.467Z,104004.91
2023-02-08T17:07:30.135Z,104021.50
2023-02-08T17:10:36.070Z,104030.66
2023-02-08T17:13:41.685Z,104021.19
2023-02-08T17:16:44.720Z,104009.19
2023-02-08T17:19:48.000Z,104029.41
2023-02-08T17:22:52.361Z,104038.50
2023-02-08T17:26:06.371Z,104022.16
2023-02-08T17:29:13.535Z,104027.81
2023-02-08T17:32:16.376Z,104033.75
2023-02-08T17:35:19.636Z,104030.50
2023-02-08T17:38:22.201Z,104026.03
2023-02-08T17:41:31.469Z,104035.22
2023-02-08T17:44:43.890Z,104037.13
2023-02-08T17:47:47.071Z,104040.34
2023-02-08T17:50:52.464Z,104027.31
2023-02-08T17:53:58.193Z,104019.19
2023-02-08T17:57:00.682Z,104037.88
2023-02-08T18:00:05.926Z,104037.03
2023-02-08T18:03:14.074Z,104028.56
2023-02-08T18:06:18.311Z,104036.94
2023-02-08T18:09:32.956Z,104043.88
2023-02-08T18:13:16.335Z,104057.31
2023-02-08T18:16:38.414Z,104051.44
2023-02-08T18:19:40.667Z,104061.44
2023-02-08T18:22:47.886Z,104065.53
2023-02-08T18:25:50.968Z,104049.38
2023-02-08T18:28:55.601Z,104049.16
2023-02-08T18:31:57.801Z,104060.56
2023-02-08T18:35:04.261Z,104070.00
2023-02-08T18:38:06.532Z,104062.66
2023-02-08T18:41:21.474Z,104065.31
2023-02-08T18:44:23.618Z,104053.41
2023-02-08T18:47:25.768Z,104063.41
2023-02-08T18:50:29.467Z,104066.13
2023-02-08T18:53:35.178Z,104052.75
2023-02-08T18:56:37.214Z,104071.34
2023-02-08T18:59:41.647Z,104058.97
2023-02-08T19:02:47.177Z,104067.38
2023-02-08T19:05:49.946Z,104068.25
2023-02-08T19:08:54.997Z,104078.66
2023-02-08T19:11:57.718Z,104069.44
2023-02-08T19:14:59.946Z,104061.41
2023-02-08T19:18:02.402Z,104071.06
2023-02-08T19:21:12.936Z,104091.34
2023-02-08T19:24:15.670Z,104069.66
2023-02-08T19:27:18.857Z,104064.50
2023-02-08T19:30:22.476Z,104071.00
2023-02-08T19:33:26.082Z,104087.66
2023-02-08T19:36:33.512Z,104078.47
2023-02-08T19:39:41.137Z,104054.44
2023-02-08T19:42:46.458Z,104075.09
2023-02-08T19:45:48.631Z,104091.00
2023-02-08T19:48:53.282Z,104088.19
2023-02-08T19:51:56.890Z,104084.50
2023-02-08T19:54:59.279Z,104077.38
2023-02-08T19:58:03.548Z,104087.75
2023-02-08T20:01:17.862Z,104079.97
2023-02-08T20:04:24.776Z,104069.28
2023-02-08T20:07:26.872Z,104074.44
2023-02-08T20:10:28.905Z,104056.47
2023-02-08T20:13:31.055Z,104074.53
2023-02-08T20:16:34.093Z,104066.28
2023-02-08T20:19:38.503Z,104073.13
2023-02-08T20:22:40.941Z,104075.97
2023-02-08T20:25:43.442Z,104071.09
2023-02-08T20:28:51.610Z,104068.47
2023-02-08T20:31:56.087Z,104084.03
2023-02-08T20:35:00.137Z,104091.03
2023-02-08T20:38:02.929Z,104086.16
2023-02-08T20:41:11.003Z,104082.03
2023-02-08T20:44:23.071Z,104068.06
2023-02-08T20:47:27.387Z,104075.72
2023-02-08T20:50:31.019Z,104074.94
2023-02-08T20:53:34.755Z,104074.88
2023-02-08T20:56:38.277Z,104074.31
2023-02-08T20:59:42.371Z,104091.59
2023-02-08T21:02:44.463Z,104068.25
2023-02-08T21:05:46.834Z,104070.41
2023-02-08T21:08:51.840Z,104085.41
2023-02-08T21:11:54.210Z,104079.09
2023-02-08T21:15:15.088Z,104068.09
2023-02-08T21:18:17.251Z,104066.31
2023-02-08T21:21:20.534Z,104068.94
2023-02-08T21:24:26.494Z,104082.47
2023-02-08T21:27:29.424Z,104078.06
2023-02-08T21:30:32.113Z,104074.44
2023-02-08T21:33:37.276Z,104088.13
2023-02-08T21:36:40.863Z,104080.81
2023-02-08T21:39:45.425Z,104072.16
2023-02-08T21:42:49.056Z,104073.13
2023-02-08T21:45:51.945Z,104084.38
2023-02-08T21:49:14.149Z,104075.97
2023-02-08T21:52:36.128Z,104061.63
2023-02-08T21:55:38.366Z,104081.28
2023-02-08T21:58:40.516Z,104069.91
2023-02-08T22:01:42.950Z,104060.06
2023-02-08T22:05:03.908Z,104090.19
2023-02-08T22:08:06.042Z,104091.78
2023-02-08T22:11:09.017Z,104087.88
2023-02-08T22:14:12.618Z,104099.31
2023-02-08T22:17:15.283Z,104099.94
2023-02-08T22:20:17.484Z,104089.41
2023-02-08T22:23:19.826Z,104089.03
2023-02-08T22:26:22.056Z,104094.50
2023-02-08T22:29:24.111Z,104068.28
2023-02-08T22:32:26.216Z,104058.16
2023-02-08T22:35:28.307Z,104062.16
2023-02-08T22:38:30.333Z,104069.94
2023-02-08T22:41:32.527Z,104067.63
2023-02-08T22:44:39.140Z,104068.97
2023-02-08T22:47:41.505Z,104075.56
2023-02-08T22:50:44.482Z,104069.75
2023-02-08T22:53:47.023Z,104072.28
2023-02-08T22:56:49.164Z,104064.47
2023-02-08T22:59:52.028Z,104068.22
2023-02-08T23:02:54.126Z,104057.66
2023-02-08T23:05:56.878Z,104054.41
2023-02-08T23:08:59.200Z,104052.25
2023-02-08T23:12:01.592Z,104066.06
2023-02-08T23:15:04.784Z,104079.47
2023-02-08T23:18:08.468Z,104075.06
2023-02-08T23:21:13.803Z,104080.78
2023-02-08T23:24:17.117Z,104056.69
2023-02-08T23:27:19.382Z,104067.81
2023-02-08T23:30:21.588Z,104065.75
2023-02-08T23:33:23.667Z,104072.41
2023-02-08T23:36:25.881Z,104054.75
2023-02-08T23:39:27.886Z,104073.22
2023-02-08T23:42:29.877Z,104074.63
2023-02-08T23:45:32.141Z,104077.47
2023-02-08T23:48:36.733Z,104076.13
2023-02-08T23:51:40.086Z,104063.00
2023-02-08T23:54:42.362Z,104068.50
2023-02-08T23:57:44.373Z,104062.22
